Time;durP1;ratioP1;P1;durP2;ratioP2;P2;SDS_P1;SDS_P2;PMS_P1;PMS_P2;Temp;Humidity;BMP_temperature;BMP_pressure;BME280_temperature;BME280_humidity;BME280_pressure;Samples;Min_cycle;Max_cycle;Signal;HPM_P1;HPM_P2
2022/07/01 00:02:02;;;;;;;2.50;1.50;;;;;;;14.44;86.61;93947.69;5047213;28;20094;-62
2022/07/01 00:04:29;;;;;;;2.78;1.50;;;;;;;14.37;87.52;93946.69;5047687;28;20549;-63
2022/07/01 00:06:57;;;;;;;3.22;1.50;;;;;;;14.35;87.07;93965.66;5050888;28;20040;-61
2022/07/01 00:09:24;;;;;;;2.85;1.50;;;;;;;14.29;87.09;93972.19;5040879;28;20405;-61
2022/07/01 00:11:51;;;;;;;2.63;1.63;;;;;;;14.25;87.54;93966.00;5048209;28;20496;-60
2022/07/01 00:14:17;;;;;;;3.70;1.67;;;;;;;14.34;88.33;93955.06;5051955;28;20044;-60
2022/07/01 00:16:44;;;;;;;3.65;1.77;;;;;;;14.32;88.21;93963.78;5050889;28;20405;-61
2022/07/01 00:19:11;;;;;;;3.05;1.80;;;;;;;14.23;88.84;93971.94;5051771;28;20037;-60
2022/07/01 00:21:38;;;;;;;3.20;2.20;;;;;;;14.21;88.28;93962.56;5050937;28;20049;-61
2022/07/01 00:24:06;;;;;;;4.93;2.17;;;;;;;13.90;89.96;93958.25;5051516;28;20037;-60
2022/07/01 00:26:33;;;;;;;4.20;2.33;;;;;;;14.26;89.08;93951.72;5041903;28;20051;-60
2022/07/01 00:29:00;;;;;;;3.20;1.98;;;;;;;14.35;88.36;93951.09;5031532;28;20060;-60
2022/07/01 00:31:27;;;;;;;3.38;1.90;;;;;;;14.27;87.36;93955.28;5048285;28;20048;-62
2022/07/01 00:33:53;;;;;;;2.80;1.70;;;;;;;14.47;85.84;93939.28;5047286;28;20464;-61
2022/07/01 00:36:21;;;;;;;2.78;1.40;;;;;;;14.61;85.75;93937.34;5051418;28;20508;-61
2022/07/01 00:38:51;;;;;;;2.43;1.40;;;;;;;14.67;85.09;93939.13;5050837;28;20041;-61
2022/07/01 00:41:18;;;;;;;2.67;1.48;;;;;;;14.46;85.27;93932.22;5050159;28;20375;-61
2022/07/01 00:43:45;;;;;;;2.75;1.33;;;;;;;14.31;84.64;93937.41;5038946;28;20057;-61
2022/07/01 00:46:21;;;;;;;2.45;1.40;;;;;;;14.48;84.97;93931.78;5050186;28;20037;-60
2022/07/01 00:48:50;;;;;;;2.50;1.33;;;;;;;14.39;85.74;93918.63;5041344;28;20102;-60
2022/07/01 00:51:18;;;;;;;3.17;1.50;;;;;;;13.99;86.80;93910.72;5046816;28;20350;-60
2022/07/01 00:53:46;;;;;;;3.10;1.50;;;;;;;14.11;87.23;93900.94;5050414;28;20049;-61
2022/07/01 00:56:13;;;;;;;2.85;1.60;;;;;;;14.31;87.58;93896.00;5051077;28;20467;-60
2022/07/01 00:58:40;;;;;;;3.00;1.58;;;;;;;14.35;87.31;93915.22;5049819;28;20405;-62
2022/07/01 01:01:07;;;;;;;3.35;1.60;;;;;;;14.45;86.74;93910.59;5050765;28;20440;-61
2022/07/01 01:03:34;;;;;;;2.67;1.60;;;;;;;14.23;86.82;93910.44;5050011;28;20045;-62
2022/07/01 01:06:02;;;;;;;4.10;1.75;;;;;;;14.26;87.34;93906.78;5050806;28;20482;-60
2022/07/01 01:08:29;;;;;;;2.90;1.70;;;;;;;14.49;87.41;93897.44;5049956;28;20363;-60
2022/07/01 01:10:56;;;;;;;3.00;1.63;;;;;;;14.49;86.76;93900.22;5037433;28;20506;-60
2022/07/01 01:13:23;;;;;;;2.92;1.60;;;;;;;14.38;87.36;93889.47;5050831;28;20049;-60
2022/07/01 01:15:50;;;;;;;2.97;1.60;;;;;;;14.39;87.30;93899.31;5050437;28;20437;-60
2022/07/01 01:18:16;;;;;;;2.80;1.60;;;;;;;14.55;87.21;93892.91;5048552;28;20048;-60
2022/07/01 01:20:43;;;;;;;3.03;1.52;;;;;;;14.66;86.91;93900.88;5049751;28;20080;-60
2022/07/01 01:23:10;;;;;;;3.10;1.50;;;;;;;14.71;86.15;93892.06;5050480;28;20482;-60
2022/07/01 01:25:36;;;;;;;3.83;1.73;;;;;;;14.44;86.56;93884.19;5048267;28;20052;-60
2022/07/01 01:28:04;;;;;;;3.80;1.50;;;;;;;14.52;86.88;93885.50;5050083;28;20603;-60
2022/07/01 01:30:31;;;;;;;2.83;1.55;;;;;;;14.71;86.91;93875.50;5049369;28;20071;-61
2022/07/01 01:32:57;;;;;;;3.22;1.50;;;;;;;14.61;86.37;93866.31;5046919;28;20045;-60
2022/07/01 01:35:24;;;;;;;3.35;1.80;;;;;;;14.48;87.60;93860.75;5044938;28;20037;-60
2022/07/01 01:37:51;;;;;;;3.22;1.90;;;;;;;14.46;87.45;93856.91;5049295;28;20051;-60
2022/07/01 01:40:19;;;;;;;3.97;1.67;;;;;;;14.55;88.11;93854.25;5050210;28;20516;-60
2022/07/01 01:42:46;;;;;;;2.90;1.70;;;;;;;14.56;87.66;93840.00;5045766;28;20087;-60
2022/07/01 01:45:13;;;;;;;3.90;1.48;;;;;;;14.48;87.57;93846.19;5039672;28;20406;-60
2022/07/01 01:47:40;;;;;;;2.60;1.55;;;;;;;14.46;87.60;93841.09;5047952;28;20061;-60
2022/07/01 01:50:09;;;;;;;2.75;1.65;;;;;;;14.48;87.60;93838.66;5050088;28;20045;-60
2022/07/01 01:52:37;;;;;;;2.30;1.37;;;;;;;14.53;87.31;93829.06;5048102;28;20041;-61
2022/07/01 01:55:05;;;;;;;3.17;1.40;;;;;;;14.60;87.12;93833.63;5048660;28;20036;-61
2022/07/01 01:57:32;;;;;;;2.50;1.40;;;;;;;14.65;86.52;93830.28;5031065;28;20049;-61
2022/07/01 01:59:58;;;;;;;2.25;1.27;;;;;;;14.72;86.84;93849.41;5034058;28;20041;-60
2022/07/01 02:02:25;;;;;;;2.80;1.60;;;;;;;14.68;86.80;93851.50;5029154;28;20041;-60
2022/07/01 02:04:53;;;;;;;4.20;1.73;;;;;;;14.74;86.24;93853.25;5037336;28;20053;-60
2022/07/01 02:07:19;;;;;;;2.90;1.60;;;;;;;14.56;86.27;93848.28;5037879;28;20041;-61
2022/07/01 02:09:46;;;;;;;2.45;1.40;;;;;;;14.68;86.35;93860.56;5042445;28;20057;-60
2022/07/01 02:12:13;;;;;;;2.80;1.70;;;;;;;14.64;85.95;93857.13;5049262;28;20055;-61
2022/07/01 02:14:39;;;;;;;2.60;1.60;;;;;;;14.63;85.33;93850.06;5035266;28;20049;-60
2022/07/01 02:17:07;;;;;;;3.43;1.60;;;;;;;14.71;85.63;93861.69;5049397;28;20397;-60
2022/07/01 02:19:34;;;;;;;6.32;3.83;;;;;;;14.72;85.91;93861.22;5048619;28;20051;-61
2022/07/01 02:22:01;;;;;;;3.47;1.80;;;;;;;14.81;86.39;93865.28;5049336;28;20037;-61
2022/07/01 02:24:28;;;;;;;2.58;1.40;;;;;;;14.80;86.23;93869.28;5041653;28;20073;-60
2022/07/01 02:26:54;;;;;;;2.78;1.40;;;;;;;14.84;86.73;93875.47;5021255;28;21844;-60
2022/07/01 02:29:22;;;;;;;2.30;1.30;;;;;;;14.82;85.74;93880.66;5030306;28;20037;-60
2022/07/01 02:31:48;;;;;;;3.20;1.20;;;;;;;14.43;84.47;93888.13;5034517;28;20045;-60
2022/07/01 02:34:15;;;;;;;3.13;1.30;;;;;;;14.08;84.90;93879.72;5040924;28;20072;-60
2022/07/01 02:36:42;;;;;;;2.42;1.48;;;;;;;13.90;86.10;93892.03;5048178;28;20049;-60
2022/07/01 02:39:09;;;;;;;2.60;1.70;;;;;;;13.68;86.47;93883.63;5049032;28;20052;-60
2022/07/01 02:42:22;;;;;;;2.40;1.40;;;;;;;13.65;87.95;93887.22;5046945;28;20060;-61
2022/07/01 02:44:22;;;;;;;2.60;1.30;;;;;;;13.54;87.72;93876.50;5049084;28;20053;-61
2022/07/01 02:46:49;;;;;;;3.20;1.40;;;;;;;13.76;88.39;93878.66;5047343;28;20060;-60
2022/07/01 02:49:16;;;;;;;3.20;1.65;;;;;;;13.89;88.60;93870.44;5049106;28;20049;-60
2022/07/01 02:51:43;;;;;;;3.00;1.70;;;;;;;14.13;88.49;93893.75;5048206;28;20174;-61
2022/07/01 02:54:09;;;;;;;2.43;1.60;;;;;;;14.12;87.91;93899.72;5049243;28;20044;-61
2022/07/01 02:56:36;;;;;;;3.75;2.10;;;;;;;13.51;87.47;93907.69;5048197;28;20049;-61
2022/07/01 02:59:03;;;;;;;3.50;1.92;;;;;;;13.28;89.31;93907.88;5048889;28;20108;-61
2022/07/01 03:01:30;;;;;;;5.18;2.08;;;;;;;13.21;89.96;93906.09;5048349;28;20045;-61
2022/07/01 03:03:56;;;;;;;3.85;1.85;;;;;;;13.50;89.22;93924.66;5048647;28;20037;-62
2022/07/01 03:06:23;;;;;;;2.40;1.37;;;;;;;13.38;87.91;93929.69;5028905;28;20042;-62
2022/07/01 03:08:50;;;;;;;2.60;1.50;;;;;;;13.25;88.55;93928.81;5032365;28;20048;-61
2022/07/01 03:11:17;;;;;;;2.53;1.58;;;;;;;13.47;87.18;93939.31;5029449;28;20312;-63
2022/07/01 03:13:44;;;;;;;3.55;1.27;;;;;;;13.28;85.94;93952.75;5036204;28;20055;-61
2022/07/01 03:16:11;;;;;;;2.20;1.20;;;;;;;13.54;85.29;93956.47;5037768;28;20166;-61
2022/07/01 03:18:38;;;;;;;7.93;1.37;;;;;;;13.58;86.84;93959.09;5047743;28;20180;-61
2022/07/01 03:21:04;;;;;;;5.65;1.52;;;;;;;13.61;87.03;93955.50;5048450;28;20159;-62
2022/07/01 03:23:31;;;;;;;3.05;1.30;;;;;;;13.64;86.44;93960.13;5035324;28;20048;-63
2022/07/01 03:25:58;;;;;;;2.83;1.20;;;;;;;13.56;86.64;93967.03;5047851;28;20049;-61
2022/07/01 03:28:25;;;;;;;2.13;1.00;;;;;;;13.57;85.91;93971.34;5048309;28;20171;-61
2022/07/01 03:30:51;;;;;;;2.57;1.07;;;;;;;13.51;86.64;93984.88;5047559;28;20113;-62
2022/07/01 03:33:19;;;;;;;3.67;1.10;;;;;;;13.58;86.33;93992.19;5041327;28;20044;-61
2022/07/01 03:35:46;;;;;;;3.22;1.30;;;;;;;13.97;85.43;93993.94;5040966;28;20498;-61
2022/07/01 03:38:12;;;;;;;2.10;1.10;;;;;;;13.56;84.05;93980.81;5034615;28;20048;-61
2022/07/01 03:40:39;;;;;;;2.80;1.10;;;;;;;13.75;85.61;93982.69;5036803;28;20068;-61
2022/07/01 03:43:06;;;;;;;2.00;1.00;;;;;;;13.32;86.23;93983.00;5050294;28;20115;-61
2022/07/01 03:45:33;;;;;;;2.38;1.00;;;;;;;13.32;86.04;93996.78;5051914;28;20055;-63
2022/07/01 03:48:00;;;;;;;2.30;1.00;;;;;;;13.34;86.18;94002.63;5052218;28;20033;-61
2022/07/01 03:50:27;;;;;;;3.95;0.98;;;;;;;13.43;86.50;94002.03;5052460;28;20458;-62
2022/07/01 03:55:41;;;;;;;2.30;1.10;;;;;;;13.29;86.74;93987.41;5030285;28;20045;-61
2022/07/01 03:58:08;;;;;;;3.30;1.10;;;;;;;12.86;85.69;93982.09;5032070;28;20046;-61
2022/07/01 04:00:36;;;;;;;2.15;1.15;;;;;;;13.19;86.46;93980.91;5029628;28;20046;-63
2022/07/01 04:03:06;;;;;;;2.60;1.30;;;;;;;12.99;85.46;93983.75;5032073;28;20350;-61
2022/07/01 04:05:34;;;;;;;3.40;1.30;;;;;;;12.81;86.99;93977.88;5021981;28;20109;-61
2022/07/01 04:08:06;;;;;;;2.60;1.00;;;;;;;12.96;87.21;93984.63;5024264;28;20053;-61
2022/07/01 04:10:34;;;;;;;2.50;1.17;;;;;;;12.63;87.84;93992.03;5024363;28;20048;-62
2022/07/01 04:13:01;;;;;;;3.20;1.33;;;;;;;12.93;88.49;93996.47;5030580;28;20044;-61
2022/07/01 04:15:48;;;;;;;3.88;1.55;;;;;;;13.05;87.57;94006.06;5036179;28;20063;-61
2022/07/01 04:18:15;;;;;;;6.53;3.20;;;;;;;13.14;86.54;94014.50;5051579;28;20049;-61
2022/07/01 04:20:42;;;;;;;35.97;16.43;;;;;;;13.10;88.19;94016.56;5050892;28;20048;-61
2022/07/01 04:23:09;;;;;;;16.23;7.70;;;;;;;13.21;87.31;94018.31;5039243;28;20057;-61
2022/07/01 04:25:35;;;;;;;15.20;6.30;;;;;;;13.26;87.43;94021.31;5028642;28;20072;-63
2022/07/01 04:28:03;;;;;;;4.18;1.65;;;;;;;13.24;88.26;94020.19;5023213;28;20053;-61
2022/07/01 04:30:30;;;;;;;4.82;1.75;;;;;;;13.39;87.80;94018.66;5024453;28;20071;-61
2022/07/01 04:32:57;;;;;;;3.50;1.70;;;;;;;13.42;88.30;94030.81;5028166;28;20045;-65
2022/07/01 04:35:23;;;;;;;3.10;1.50;;;;;;;13.33;87.52;94028.66;5012567;28;20044;-61
2022/07/01 04:37:50;;;;;;;4.00;1.40;;;;;;;13.29;87.61;94034.25;5027257;28;20050;-62
2022/07/01 04:40:17;;;;;;;2.53;1.10;;;;;;;13.26;86.64;94037.06;5033126;28;20037;-62
2022/07/01 04:42:44;;;;;;;2.42;0.80;;;;;;;13.37;85.53;94037.63;5018943;28;20120;-62
2022/07/01 04:45:11;;;;;;;3.07;1.10;;;;;;;13.46;85.78;94035.03;5028152;28;20045;-61
2022/07/01 04:47:37;;;;;;;2.95;1.30;;;;;;;13.39;86.17;94037.97;5030638;28;20076;-62
2022/07/01 04:50:05;;;;;;;2.10;1.00;;;;;;;13.52;84.53;94035.28;5029570;28;20051;-61
2022/07/01 04:52:31;;;;;;;2.70;0.93;;;;;;;13.19;84.99;94036.03;5029817;28;20049;-62
2022/07/01 04:54:58;;;;;;;2.85;1.00;;;;;;;13.43;85.26;94026.84;5030854;28;20115;-61
2022/07/01 04:57:25;;;;;;;3.47;1.00;;;;;;;13.38;83.92;94020.66;5030850;28;20080;-61
2022/07/01 04:59:51;;;;;;;1.90;0.80;;;;;;;13.18;84.90;94017.94;5030123;28;20045;-62
2022/07/01 05:02:18;;;;;;;2.35;1.00;;;;;;;13.46;84.70;94018.50;5030772;28;20037;-61
2022/07/01 05:04:45;;;;;;;3.78;1.10;;;;;;;13.40;85.49;94023.00;5024213;28;20067;-62
2022/07/01 05:07:27;;;;;;;2.42;0.90;;;;;;;13.52;83.15;94032.53;5030561;28;20449;-64
2022/07/01 05:09:55;;;;;;;2.20;0.80;;;;;;;13.60;82.61;94022.88;5041398;28;21143;-61
2022/07/01 05:12:23;;;;;;;2.42;1.08;;;;;;;13.54;83.29;94019.09;5030637;28;20046;-61
2022/07/01 05:14:49;;;;;;;3.53;1.00;;;;;;;13.61;84.26;94007.88;5022997;28;20046;-61
2022/07/01 05:17:16;;;;;;;2.40;0.95;;;;;;;13.34;82.63;94011.69;5016748;28;20108;-61
2022/07/01 05:22:28;;;;;;;3.17;1.10;;;;;;;13.71;84.06;94030.88;5028684;28;20052;-61
2022/07/01 05:24:55;;;;;;;2.35;0.80;;;;;;;13.78;83.26;94041.72;5026204;28;20397;-62
2022/07/01 05:27:24;;;;;;;2.40;0.77;;;;;;;13.82;83.11;94041.63;5042950;28;20045;-61
2022/07/01 05:29:52;;;;;;;2.78;0.77;;;;;;;13.59;82.25;94041.41;5049415;28;20044;-61
2022/07/01 05:32:19;;;;;;;2.63;1.05;;;;;;;12.87;85.21;94049.75;5050094;28;20071;-62
2022/07/01 05:34:46;;;;;;;3.17;1.10;;;;;;;13.26;85.08;94051.63;5033799;28;20045;-61
2022/07/01 05:37:13;;;;;;;2.72;1.33;;;;;;;12.93;87.99;94053.56;5049795;28;20044;-61
2022/07/01 05:39:39;;;;;;;2.78;1.38;;;;;;;12.75;89.39;94035.44;5049232;28;20110;-62
2022/07/01 05:42:14;;;;;;;2.55;1.40;;;;;;;12.81;90.91;94032.97;5050157;28;20067;-61
2022/07/01 05:44:41;;;;;;;3.15;1.40;;;;;;;12.48;92.46;94023.84;5049141;28;20049;-61
2022/07/01 05:47:09;;;;;;;2.90;1.30;;;;;;;12.75;90.92;94032.69;5017166;28;20042;-61
2022/07/01 05:49:36;;;;;;;3.17;1.55;;;;;;;13.14;90.04;94036.56;5017685;28;20049;-61
2022/07/01 05:52:03;;;;;;;2.92;1.20;;;;;;;12.94;89.74;94039.38;5042256;28;20041;-61
2022/07/01 05:54:29;;;;;;;2.58;1.20;;;;;;;13.30;88.85;94048.81;5047933;28;20037;-62
2022/07/01 05:56:56;;;;;;;3.63;1.50;;;;;;;13.49;88.07;94050.72;5031801;28;20437;-61
2022/07/01 05:59:23;;;;;;;2.40;1.13;;;;;;;13.16;87.43;94050.69;5042512;28;20049;-61
2022/07/01 06:01:50;;;;;;;3.70;1.10;;;;;;;13.26;87.42;94061.88;5048641;28;20036;-61
2022/07/01 06:04:17;;;;;;;2.20;0.82;;;;;;;13.25;87.25;94063.09;5049372;28;20064;-62
2022/07/01 06:06:44;;;;;;;2.03;0.90;;;;;;;13.47;86.17;94068.91;5048704;28;20048;-61
2022/07/01 06:09:11;;;;;;;1.98;0.70;;;;;;;13.29;85.09;94061.03;5033390;28;20045;-61
2022/07/01 06:11:38;;;;;;;2.00;0.80;;;;;;;13.65;85.71;94073.97;5028645;28;20445;-61
2022/07/01 06:14:04;;;;;;;3.13;1.30;;;;;;;13.95;83.87;94081.88;5028332;28;20041;-61
2022/07/01 06:16:31;;;;;;;3.65;1.70;;;;;;;14.01;82.60;94095.94;5028509;28;20049;-61
2022/07/01 06:18:59;;;;;;;3.90;1.42;;;;;;;14.08;83.37;94111.53;5028591;28;20048;-61
2022/07/01 06:21:26;;;;;;;2.90;1.00;;;;;;;13.98;84.97;94121.63;5028982;28;20041;-61
2022/07/01 06:23:52;;;;;;;1.90;0.80;;;;;;;14.13;84.30;94127.56;5027872;28;20063;-61
2022/07/01 06:26:19;;;;;;;2.10;0.90;;;;;;;14.12;82.89;94123.25;5028539;28;20161;-60
2022/07/01 06:28:46;;;;;;;1.80;0.73;;;;;;;14.07;81.69;94116.28;5041332;28;20055;-59
2022/07/01 06:31:13;;;;;;;1.88;0.63;;;;;;;14.18;81.39;94127.81;5035025;28;20037;-60
2022/07/01 06:33:40;;;;;;;1.67;0.70;;;;;;;13.95;82.01;94119.75;5033651;28;20596;-61
2022/07/01 06:36:06;;;;;;;2.00;0.77;;;;;;;13.94;83.61;94123.69;5048781;28;20039;-60
2022/07/01 06:38:33;;;;;;;1.92;0.60;;;;;;;13.87;81.08;94121.91;5048520;28;20045;-60
2022/07/01 06:43:45;;;;;;;2.08;0.60;;;;;;;13.68;81.47;94120.00;5048417;28;20055;-59
2022/07/01 06:46:12;;;;;;;2.25;0.57;;;;;;;13.76;81.15;94107.56;5049089;28;20044;-60
2022/07/01 06:48:39;;;;;;;1.77;0.70;;;;;;;13.39;82.92;94080.09;5048277;28;20083;-60
2022/07/01 06:51:05;;;;;;;2.13;0.60;;;;;;;13.26;82.69;94084.72;5048950;28;20519;-59
2022/07/01 06:53:32;;;;;;;2.13;0.70;;;;;;;13.33;83.97;94078.28;5048389;28;20045;-60
2022/07/01 06:55:59;;;;;;;2.47;0.70;;;;;;;13.15;83.91;94084.94;5044621;28;20047;-59
2022/07/01 06:58:26;;;;;;;2.45;0.75;;;;;;;12.73;86.85;94068.13;5027843;28;20045;-59
2022/07/01 07:00:53;;;;;;;2.57;0.77;;;;;;;13.08;86.71;94070.53;5032346;28;20049;-59
2022/07/01 07:03:20;;;;;;;2.50;0.80;;;;;;;12.75;87.33;94079.50;5029311;28;20055;-60
2022/07/01 07:05:47;;;;;;;2.28;0.90;;;;;;;12.89;90.24;94085.91;5035909;28;20061;-59
2022/07/01 07:08:14;;;;;;;4.15;0.93;;;;;;;13.45;88.07;94099.66;5043863;28;20053;-60
2022/07/01 07:10:41;;;;;;;2.90;1.10;;;;;;;12.96;88.10;94103.06;5041024;28;20045;-59
2022/07/01 07:13:07;;;;;;;3.57;1.20;;;;;;;13.28;88.63;94107.09;5048734;28;20041;-60
2022/07/01 07:15:34;;;;;;;3.33;1.02;;;;;;;13.23;88.11;94113.09;5036847;28;20053;-60
2022/07/01 07:18:01;;;;;;;3.10;1.10;;;;;;;13.47;86.84;94119.28;5052820;28;20052;-59
2022/07/01 07:20:28;;;;;;;3.38;1.10;;;;;;;13.57;86.64;94115.50;5052928;28;20033;-61
2022/07/01 07:22:55;;;;;;;3.28;1.00;;;;;;;13.62;85.67;94125.25;5031795;28;20108;-60
2022/07/01 07:25:21;;;;;;;3.17;1.00;;;;;;;13.76;85.72;94124.13;5032634;28;20052;-60
2022/07/01 07:27:48;;;;;;;3.25;1.10;;;;;;;13.72;85.46;94120.69;5031836;28;20057;-60
2022/07/01 07:30:16;;;;;;;1.60;0.68;;;;;;;13.79;84.19;94121.28;5032727;28;20060;-61
2022/07/01 07:32:43;;;;;;;2.10;0.93;;;;;;;13.42;85.26;94108.00;5006615;28;20502;-59
2022/07/01 07:35:11;;;;;;;3.30;0.88;;;;;;;13.44;86.27;94116.59;5024182;28;20063;-61
2022/07/01 07:37:38;;;;;;;3.27;1.00;;;;;;;13.54;85.69;94110.88;5032063;28;20106;-60
2022/07/01 07:40:07;;;;;;;3.08;0.80;;;;;;;13.24;86.97;94111.91;5032094;28;20043;-59
2022/07/01 07:42:34;;;;;;;1.98;0.77;;;;;;;13.46;86.08;94116.97;5031778;28;20053;-60
2022/07/01 07:45:01;;;;;;;2.38;0.90;;;;;;;13.42;85.30;94124.53;5032392;28;20041;-59
2022/07/01 07:47:28;;;;;;;3.45;0.90;;;;;;;13.04;87.46;94125.75;5031224;28;20054;-59
2022/07/01 07:49:55;;;;;;;1.93;0.90;;;;;;;13.05;88.50;94143.03;5048501;28;20776;-60
2022/07/01 07:52:21;;;;;;;2.47;1.10;;;;;;;13.16;87.27;94135.31;5041275;28;20043;-60
2022/07/01 07:54:48;;;;;;;2.08;0.88;;;;;;;13.28;85.51;94142.94;5051627;28;20053;-62
2022/07/01 07:57:15;;;;;;;3.22;0.90;;;;;;;13.24;86.01;94135.94;5023103;28;20056;-60
2022/07/01 07:59:42;;;;;;;2.58;0.80;;;;;;;13.57;84.85;94129.28;5032360;28;20049;-60
2022/07/01 08:02:09;;;;;;;3.33;0.70;;;;;;;13.67;84.17;94143.28;5036195;28;20045;-60
2022/07/01 08:04:36;;;;;;;5.15;1.20;;;;;;;13.57;82.96;94134.03;5050674;28;20375;-59
2022/07/01 08:07:03;;;;;;;3.47;0.80;;;;;;;13.38;83.46;94149.41;5038899;28;20051;-59
2022/07/01 08:09:34;;;;;;;2.33;0.70;;;;;;;13.41;84.03;94161.59;5047358;28;20071;-60
2022/07/01 08:12:02;;;;;;;3.33;0.77;;;;;;;12.84;85.59;94160.75;5038096;28;20036;-59
2022/07/01 08:14:29;;;;;;;3.20;0.70;;;;;;;12.86;87.39;94167.44;5039375;28;20042;-60
2022/07/01 08:16:56;;;;;;;2.65;0.60;;;;;;;12.66;86.18;94172.16;5034404;28;20060;-59
2022/07/01 08:19:23;;;;;;;1.80;0.60;;;;;;;12.40;88.25;94166.34;5051582;28;20107;-59
2022/07/01 08:21:49;;;;;;;2.20;0.80;;;;;;;12.40;89.08;94160.81;5050980;28;20033;-61
2022/07/01 08:24:16;;;;;;;2.65;0.82;;;;;;;12.47;89.61;94157.16;5050749;28;20375;-59
2022/07/01 08:26:43;;;;;;;3.80;0.70;;;;;;;12.47;87.82;94157.16;5049855;28;20045;-60
2022/07/01 08:29:09;;;;;;;2.90;0.73;;;;;;;12.25;89.45;94159.53;5050803;28;20106;-59
2022/07/01 08:31:36;;;;;;;2.05;0.70;;;;;;;12.11;89.85;94152.28;5037428;28;20064;-59
2022/07/01 08:34:03;;;;;;;2.65;0.70;;;;;;;12.25;89.77;94132.78;5041295;28;20041;-59
2022/07/01 08:36:30;;;;;;;2.10;0.60;;;;;;;12.26;88.47;94139.06;5050568;28;20056;-59
2022/07/01 08:38:57;;;;;;;4.63;0.80;;;;;;;12.48;89.07;94155.97;5050599;28;20443;-59
2022/07/01 08:41:23;;;;;;;3.22;0.85;;;;;;;12.74;88.00;94170.81;5050957;28;20049;-59
2022/07/01 08:43:50;;;;;;;2.67;0.70;;;;;;;11.98;88.45;94166.66;5050778;28;20063;-60
2022/07/01 08:46:17;;;;;;;3.42;1.20;;;;;;;11.93;92.02;94175.38;5048459;28;20037;-59
2022/07/01 08:48:44;;;;;;;2.30;0.90;;;;;;;12.23;90.95;94178.41;5034863;28;20049;-58
2022/07/01 08:51:11;;;;;;;2.13;0.80;;;;;;;11.88;91.33;94188.81;5050762;28;20497;-59
2022/07/01 08:53:38;;;;;;;1.80;0.70;;;;;;;12.12;91.80;94192.38;5050465;28;20409;-59
2022/07/01 08:58:51;;;;;;;1.90;0.70;;;;;;;12.28;89.91;94188.97;5011226;28;20048;-59
2022/07/01 09:01:23;;;;;;;2.78;0.80;;;;;;;12.70;89.29;94195.66;5021723;28;20107;-59
2022/07/01 09:03:55;;;;;;;1.63;0.60;;;;;;;12.46;90.19;94192.16;5041655;28;20045;-59
2022/07/01 09:06:28;;;;;;;2.40;0.88;;;;;;;12.48;89.04;94189.78;5036935;28;20033;-59
2022/07/01 09:09:09;;;;;;;1.70;0.70;;;;;;;12.62;87.29;94180.47;5049957;28;20812;-59
2022/07/01 09:11:36;;;;;;;2.30;0.63;;;;;;;12.90;86.43;94197.66;5043454;28;20045;-59
2022/07/01 09:14:14;;;;;;;2.10;0.77;;;;;;;12.85;85.11;94204.41;5041772;28;20655;-59
2022/07/01 09:16:44;;;;;;;2.10;0.80;;;;;;;12.73;84.09;94202.28;5030798;28;20414;-58
2022/07/01 09:19:12;;;;;;;1.88;0.70;;;;;;;12.70;83.20;94201.16;5050349;28;20041;-59
2022/07/01 09:21:39;;;;;;;1.67;0.55;;;;;;;12.75;82.88;94202.66;5049999;28;20045;-59
2022/07/01 09:24:39;;;;;;;1.70;0.70;;;;;;;12.50;81.84;94203.13;5050177;28;20062;-59
2022/07/01 09:27:16;;;;;;;4.53;0.77;;;;;;;12.75;81.82;94210.91;5029288;28;20307;-58
2022/07/01 09:29:45;;;;;;;1.47;0.47;;;;;;;12.58;80.89;94212.81;5004446;28;20042;-59
2022/07/01 09:32:13;;;;;;;2.17;0.60;;;;;;;12.26;82.50;94213.38;5024539;28;20482;-59
2022/07/01 09:34:44;;;;;;;2.10;0.80;;;;;;;11.60;87.25;94201.78;5039422;28;20045;-59
2022/07/01 09:37:16;;;;;;;2.00;0.90;;;;;;;11.54;89.83;94195.19;5049294;28;20041;-61
2022/07/01 09:39:54;;;;;;;2.50;1.10;;;;;;;11.67;90.09;94192.66;5049794;28;20045;-60
2022/07/01 09:42:23;;;;;;;2.43;0.97;;;;;;;12.34;86.97;94195.53;5050278;28;20045;-61
2022/07/01 09:45:07;;;;;;;3.10;1.20;;;;;;;12.52;87.80;94208.97;5049566;28;20398;-60
2022/07/01 09:47:36;;;;;;;3.22;1.20;;;;;;;12.45;86.53;94209.88;5049496;28;20076;-60
2022/07/01 09:50:04;;;;;;;2.47;0.80;;;;;;;12.78;85.78;94194.31;5049688;28;20045;-60
2022/07/01 09:52:31;;;;;;;2.92;0.80;;;;;;;12.21;84.84;94205.59;5049462;28;20045;-60
2022/07/01 09:55:02;;;;;;;2.03;0.80;;;;;;;11.81;86.43;94200.66;5049687;28;20445;-60
2022/07/01 09:57:29;;;;;;;2.45;1.00;;;;;;;11.68;87.01;94214.22;5033351;28;20114;-61
2022/07/01 09:59:56;;;;;;;2.38;1.27;;;;;;;12.41;86.58;94228.41;5032777;28;20039;-60
2022/07/01 10:02:28;;;;;;;2.45;1.27;;;;;;;12.06;86.89;94225.06;5014449;28;20394;-60
2022/07/01 10:05:11;;;;;;;2.03;1.05;;;;;;;11.82;88.14;94218.75;5036787;28;20869;-61
2022/07/01 10:08:10;;;;;;;2.80;1.10;;;;;;;11.83;87.70;94228.56;5041899;28;20053;-59
2022/07/01 10:10:51;;;;;;;5.25;0.95;;;;;;;12.23;86.54;94233.44;5029948;28;20052;-60
2022/07/01 10:13:23;;;;;;;2.78;1.02;;;;;;;12.07;87.09;94236.84;5045965;28;20449;-60
2022/07/01 10:15:51;;;;;;;3.22;1.00;;;;;;;12.16;87.37;94234.34;5039282;28;20096;-59
2022/07/01 10:18:23;;;;;;;2.70;1.40;;;;;;;12.36;86.86;94239.94;5049219;28;20045;-60
2022/07/01 10:20:51;;;;;;;2.50;1.20;;;;;;;12.32;84.92;94237.22;5048990;28;20463;-59
2022/07/01 10:23:24;;;;;;;2.78;1.23;;;;;;;12.71;84.63;94252.28;5049104;28;20377;-60
2022/07/01 10:25:52;;;;;;;2.13;0.93;;;;;;;13.26;83.24;94255.59;5048942;28;20041;-60
2022/07/01 10:28:45;;;;;;;2.50;1.00;;;;;;;13.18;80.79;94248.66;5048992;28;20064;-60
2022/07/01 10:31:15;;;;;;;2.50;1.10;;;;;;;13.22;82.56;94249.38;5018456;28;20865;-59
2022/07/01 10:33:58;;;;;;;2.70;1.03;;;;;;;13.44;81.03;94248.94;5018784;28;20050;-59
2022/07/01 10:36:31;;;;;;;3.65;1.20;;;;;;;13.87;80.08;94253.53;5037106;28;20048;-59
2022/07/01 10:39:07;;;;;;;3.35;1.10;;;;;;;13.59;81.75;94245.47;5027821;28;20072;-59
2022/07/01 10:41:41;;;;;;;3.05;1.52;;;;;;;14.10;79.71;94250.63;5028740;28;20053;-59
2022/07/01 10:44:11;;;;;;;4.28;1.35;;;;;;;14.38;78.35;94251.16;5028665;28;20041;-59
2022/07/01 10:46:56;;;;;;;2.70;1.20;;;;;;;15.85;74.76;94247.19;5027500;28;20052;-59
2022/07/01 10:49:35;;;;;;;2.65;1.02;;;;;;;15.25;71.70;94256.03;5027265;28;20060;-59
2022/07/01 10:52:10;;;;;;;3.05;1.00;;;;;;;14.23;74.53;94261.00;5028291;28;20782;-60
2022/07/01 10:54:40;;;;;;;4.55;1.10;;;;;;;14.42;76.11;94262.13;5028971;28;20041;-59
2022/07/01 10:57:19;;;;;;;2.33;1.10;;;;;;;14.32;74.18;94267.44;5028693;28;20049;-59
2022/07/01 11:00:10;;;;;;;2.40;1.10;;;;;;;15.03;73.02;94277.97;5028547;28;20045;-59
2022/07/01 11:02:38;;;;;;;2.25;0.85;;;;;;;15.54;71.21;94275.34;5030028;28;20105;-59
2022/07/01 11:05:15;;;;;;;2.15;0.93;;;;;;;15.53;69.11;94275.78;5040551;28;20051;-60
2022/07/01 11:07:47;;;;;;;1.90;0.90;;;;;;;15.93;69.59;94272.69;5043216;28;20051;-59
2022/07/01 11:10:17;;;;;;;2.08;0.80;;;;;;;16.09;68.08;94277.34;5044180;28;20040;-59
2022/07/01 11:12:44;;;;;;;2.50;1.30;;;;;;;15.86;69.36;94281.22;5048553;28;20514;-59
2022/07/01 11:15:11;;;;;;;2.20;1.10;;;;;;;14.58;73.23;94273.19;5048363;28;20131;-59
2022/07/01 11:17:43;;;;;;;2.47;1.10;;;;;;;14.01;75.35;94272.53;5048366;28;20067;-60
2022/07/01 11:20:10;;;;;;;2.67;1.00;;;;;;;14.03;75.00;94275.63;5034343;28;20042;-59
2022/07/01 11:22:37;;;;;;;2.70;1.17;;;;;;;14.34;73.64;94275.31;5019614;28;20053;-59
2022/07/01 11:25:10;;;;;;;3.40;1.10;;;;;;;14.52;73.33;94274.88;5016651;28;20324;-60
2022/07/01 11:27:37;;;;;;;2.28;1.00;;;;;;;14.39;74.00;94280.31;5021073;28;20054;-60
2022/07/01 11:30:09;;;;;;;2.50;0.90;;;;;;;14.63;72.95;94285.69;5034622;28;20046;-59
2022/07/01 11:32:37;;;;;;;2.10;1.08;;;;;;;15.10;71.56;94279.75;5048126;28;20049;-60
2022/07/01 11:39:21;;;;;;;2.17;1.00;;;;;;;14.90;70.08;94282.63;5040949;28;20037;-59
2022/07/01 11:40:49;;;;;;;2.42;0.70;;;;;;;17.70;61.92;94287.81;5047344;28;20056;-60
2022/07/01 11:43:22;;;;;;;2.03;0.80;;;;;;;18.56;58.14;94274.19;5048250;28;20049;-60
2022/07/01 11:45:49;;;;;;;2.67;1.40;;;;;;;19.65;55.46;94270.44;5048171;28;20037;-59
2022/07/01 11:48:34;;;;;;;2.33;0.90;;;;;;;19.77;53.48;94266.75;5048113;28;20065;-60
2022/07/01 11:51:07;;;;;;;1.80;0.70;;;;;;;20.14;53.54;94266.63;5026921;28;20204;-61
2022/07/01 11:53:34;;;;;;;2.30;0.60;;;;;;;19.73;53.56;94271.69;5026529;28;20041;-60
2022/07/01 11:56:01;;;;;;;1.77;0.70;;;;;;;19.74;53.18;94271.25;5013879;28;20063;-60